Time;durP1;ratioP1;P1;durP2;ratioP2;P2;SDS_P1;SDS_P2;PMS_P1;PMS_P2;Temp;Humidity;BMP_temperature;BMP_pressure;BME280_temperature;BME280_humidity;BME280_pressure;Samples;Min_cycle;Max_cycle;Signal;HPM_P1;HPM_P2
2022/10/05 00:00:55;;;;;;;;;;;20.70;88.70;;;;;;5075126;28;19994;-69
2022/10/05 00:03:21;;;;;;;;;;;20.80;88.80;;;;;;5074039;28;19933;-68
2022/10/05 00:05:47;;;;;;;;;;;20.60;89.00;;;;;;5071422;28;19928;-67
2022/10/05 00:08:13;;;;;;;;;;;21.00;89.20;;;;;;5067897;28;19924;-69
2022/10/05 00:10:42;;;;;;;;;;;21.00;89.40;;;;;;5075726;28;19972;-69
2022/10/05 00:13:21;;;;;;;;;;;20.90;89.10;;;;;;5073779;28;20294;-68
2022/10/05 00:15:46;;;;;;;;;;;20.70;88.80;;;;;;5072911;28;19929;-67
2022/10/05 00:18:16;;;;;;;;;;;20.80;88.80;;;;;;5064288;28;19925;-68
2022/10/05 00:20:42;;;;;;;;;;;20.80;88.80;;;;;;5058109;28;19925;-67
2022/10/05 00:23:10;;;;;;;;;;;20.90;88.90;;;;;;5073871;28;19924;-66
2022/10/05 00:25:36;;;;;;;;;;;20.90;89.00;;;;;;5053683;28;20417;-69
2022/10/05 00:28:01;;;;;;;;;;;20.70;89.10;;;;;;5070583;28;19979;-65
2022/10/05 00:30:31;;;;;;;;;;;20.80;89.20;;;;;;5072121;28;19932;-68
2022/10/05 00:32:57;;;;;;;;;;;20.60;87.90;;;;;;5073074;28;19931;-67
2022/10/05 00:35:22;;;;;;;;;;;20.90;89.20;;;;;;5065665;28;19925;-68
2022/10/05 00:37:52;;;;;;;;;;;21.00;89.00;;;;;;5071171;28;19983;-68
2022/10/05 00:40:17;;;;;;;;;;;20.80;89.50;;;;;;5075094;28;19929;-69
2022/10/05 00:42:55;;;;;;;;;;;20.70;88.90;;;;;;5074296;28;19925;-68
2022/10/05 00:45:23;;;;;;;;;;;20.90;89.00;;;;;;5072663;28;19978;-68
2022/10/05 00:47:52;;;;;;;;;;;20.70;88.90;;;;;;5070606;28;19924;-67
2022/10/05 00:50:32;;;;;;;;;;;21.10;89.70;;;;;;5065159;28;19931;-67
2022/10/05 00:52:57;;;;;;;;;;;20.90;88.10;;;;;;5067361;28;19924;-68
2022/10/05 00:55:27;;;;;;;;;;;20.80;89.10;;;;;;5074042;28;20033;-67
2022/10/05 00:58:02;;;;;;;;;;;20.70;89.40;;;;;;5071103;28;19932;-69
2022/10/05 01:00:28;;;;;;;;;;;20.80;89.00;;;;;;5064024;28;19998;-67
2022/10/05 01:03:12;;;;;;;;;;;20.90;89.10;;;;;;5056083;28;19968;-69
2022/10/05 01:05:42;;;;;;;;;;;20.80;88.10;;;;;;5060708;28;19924;-67
2022/10/05 01:08:37;;;;;;;;;;;20.80;89.50;;;;;;5043050;28;20382;-68
2022/10/05 01:11:06;;;;;;;;;;;20.90;89.10;;;;;;5009069;28;19933;-68
2022/10/05 01:13:36;;;;;;;;;;;21.00;88.30;;;;;;4994131;28;19933;-64
2022/10/05 01:16:03;;;;;;;;;;;20.70;89.00;;;;;;5005928;28;20364;-66
2022/10/05 01:18:31;;;;;;;;;;;20.90;89.20;;;;;;4991036;28;20430;-69
2022/10/05 01:21:09;;;;;;;;;;;20.90;88.30;;;;;;5003446;28;19925;-65
2022/10/05 01:23:43;;;;;;;;;;;20.90;89.20;;;;;;5012104;28;19925;-69
2022/10/05 01:26:09;;;;;;;;;;;20.80;89.20;;;;;;5012703;28;19964;-69
2022/10/05 01:28:45;;;;;;;;;;;20.60;89.10;;;;;;4989115;28;19969;-67
2022/10/05 01:31:20;;;;;;;;;;;20.70;89.70;;;;;;5002946;28;20378;-68
2022/10/05 01:33:49;;;;;;;;;;;20.80;89.30;;;;;;5007324;28;19925;-69
2022/10/05 01:36:24;;;;;;;;;;;21.10;89.40;;;;;;4976660;28;19995;-69
2022/10/05 01:38:54;;;;;;;;;;;20.90;88.40;;;;;;5007203;28;20348;-69
2022/10/05 01:41:20;;;;;;;;;;;20.60;88.20;;;;;;4995988;28;19936;-68
2022/10/05 01:43:47;;;;;;;;;;;21.00;89.60;;;;;;5005760;28;19925;-69
2022/10/05 01:46:18;;;;;;;;;;;20.80;89.30;;;;;;5011252;28;19925;-68
2022/10/05 01:48:51;;;;;;;;;;;21.00;88.50;;;;;;5067326;28;19932;-66
2022/10/05 01:51:43;;;;;;;;;;;20.70;88.30;;;;;;5061654;28;20332;-68
2022/10/05 01:54:12;;;;;;;;;;;20.60;89.10;;;;;;5066921;28;19924;-68
2022/10/05 01:56:39;;;;;;;;;;;20.90;89.30;;;;;;5057375;28;20274;-68
2022/10/05 01:59:14;;;;;;;;;;;20.60;89.70;;;;;;5069981;28;19935;-69
2022/10/05 02:01:48;;;;;;;;;;;20.90;89.80;;;;;;5053376;28;20395;-69
2022/10/05 02:04:19;;;;;;;;;;;20.80;88.40;;;;;;5037524;28;20344;-70
2022/10/05 02:06:45;;;;;;;;;;;20.60;89.20;;;;;;5065401;28;19928;-69
2022/10/05 02:09:31;;;;;;;;;;;20.70;89.80;;;;;;5054645;28;19977;-68
2022/10/05 02:12:02;;;;;;;;;;;20.70;88.40;;;;;;5055600;28;19925;-67
2022/10/05 02:14:30;;;;;;;;;;;21.00;89.40;;;;;;5065005;28;20011;-68
2022/10/05 02:16:56;;;;;;;;;;;20.90;89.40;;;;;;5072589;28;19924;-68
2022/10/05 02:19:41;;;;;;;;;;;20.80;89.00;;;;;;5071225;28;19925;-68
2022/10/05 02:22:08;;;;;;;;;;;20.60;89.30;;;;;;5086165;28;19931;-67
2022/10/05 02:24:38;;;;;;;;;;;21.00;89.50;;;;;;5050942;28;20022;-68
2022/10/05 02:27:04;;;;;;;;;;;20.70;88.50;;;;;;5063850;28;20306;-69
2022/10/05 02:29:29;;;;;;;;;;;20.70;89.40;;;;;;5062487;28;19924;-67
2022/10/05 02:32:03;;;;;;;;;;;20.50;89.60;;;;;;5054280;28;19928;-67
2022/10/05 02:34:28;;;;;;;;;;;20.70;89.40;;;;;;5070963;28;19925;-69
2022/10/05 02:37:17;;;;;;;;;;;20.90;89.50;;;;;;5071248;28;19928;-67
2022/10/05 02:39:49;;;;;;;;;;;20.60;89.30;;;;;;5000436;28;19960;-68
2022/10/05 02:42:15;;;;;;;;;;;20.80;88.60;;;;;;5019459;28;20443;-68
2022/10/05 02:45:19;;;;;;;;;;;20.80;89.50;;;;;;4997539;28;20041;-68
2022/10/05 02:47:45;;;;;;;;;;;;;;;;;;4937450;28;19930;-66
2022/10/05 02:50:28;;;;;;;;;;;20.50;88.20;;;;;;4953973;28;20421;-69
2022/10/05 02:53:03;;;;;;;;;;;20.80;88.60;;;;;;4968085;28;20038;-68
2022/10/05 02:55:31;;;;;;;;;;;20.80;89.50;;;;;;4959235;28;19986;-69
2022/10/05 02:58:05;;;;;;;;;;;20.90;89.60;;;;;;4959839;28;19934;-68
2022/10/05 03:00:31;;;;;;;;;;;20.70;89.50;;;;;;4955787;28;20021;-69
2022/10/05 03:02:59;;;;;;;;;;;20.60;89.40;;;;;;4968313;28;19973;-69
2022/10/05 03:05:25;;;;;;;;;;;20.80;88.70;;;;;;4965342;28;19926;-69
2022/10/05 03:07:51;;;;;;;;;;;20.50;89.60;;;;;;4961587;28;20408;-69
2022/10/05 03:10:24;;;;;;;;;;;20.60;89.50;;;;;;4947149;28;19927;-67
2022/10/05 03:13:00;;;;;;;;;;;20.70;89.60;;;;;;4943739;28;20393;-67
2022/10/05 03:15:32;;;;;;;;;;;20.90;89.70;;;;;;4964673;28;19930;-69
2022/10/05 03:18:08;;;;;;;;;;;20.60;88.70;;;;;;5038839;28;19925;-65
2022/10/05 03:20:42;;;;;;;;;;;20.70;88.20;;;;;;5061675;28;19925;-68
2022/10/05 03:23:10;;;;;;;;;;;20.80;88.80;;;;;;5072902;28;19947;-68
2022/10/05 03:25:49;;;;;;;;;;;20.80;89.70;;;;;;5076829;28;19970;-69
2022/10/05 03:28:19;;;;;;;;;;;20.90;89.80;;;;;;5074738;28;20420;-69
2022/10/05 03:31:03;;;;;;;;;;;20.80;88.90;;;;;;5078521;28;19947;-68
2022/10/05 03:33:31;;;;;;;;;;;20.60;89.70;;;;;;5078445;28;20392;-69
2022/10/05 03:36:11;;;;;;;;;;;20.70;89.70;;;;;;5078042;28;19976;-69
2022/10/05 03:38:37;;;;;;;;;;;20.80;89.80;;;;;;5076498;28;19950;-65
2022/10/05 03:41:06;;;;;;;;;;;20.90;89.80;;;;;;5076331;28;19924;-69
2022/10/05 03:43:32;;;;;;;;;;;20.70;90.10;;;;;;5079656;28;19925;-66
2022/10/05 03:46:00;;;;;;;;;;;20.70;90.00;;;;;;5078184;28;20432;-68
2022/10/05 03:48:29;;;;;;;;;;;20.60;89.70;;;;;;5076322;28;19928;-69
2022/10/05 03:50:57;;;;;;;;;;;20.50;88.80;;;;;;5070117;28;20267;-68
2022/10/05 03:53:27;;;;;;;;;;;20.60;89.70;;;;;;5076395;28;19924;-69
2022/10/05 03:55:58;;;;;;;;;;;20.60;89.70;;;;;;5072092;28;20302;-69
2022/10/05 03:58:45;;;;;;;;;;;20.60;89.80;;;;;;5062988;28;19979;-67
2022/10/05 04:01:11;;;;;;;;;;;20.50;89.70;;;;;;5049251;28;19947;-69
2022/10/05 04:03:44;;;;;;;;;;;20.60;90.10;;;;;;5073186;28;20020;-68
2022/10/05 04:06:12;;;;;;;;;;;20.70;89.80;;;;;;5075685;28;20049;-68
2022/10/05 04:08:46;;;;;;;;;;;20.60;90.10;;;;;;5078799;28;20289;-65
2022/10/05 04:11:17;;;;;;;;;;;20.90;89.60;;;;;;5076833;28;19925;-68
2022/10/05 04:13:48;;;;;;;;;;;20.70;89.90;;;;;;5066815;28;19925;-69
2022/10/05 04:16:14;;;;;;;;;;;20.70;89.90;;;;;;5058738;28;19973;-69
2022/10/05 04:18:43;;;;;;;;;;;20.90;90.20;;;;;;5077333;28;20210;-68
2022/10/05 04:21:24;;;;;;;;;;;20.60;89.80;;;;;;5069225;28;20007;-62
2022/10/05 04:23:53;;;;;;;;;;;20.70;89.90;;;;;;5073883;28;19924;-62
2022/10/05 04:26:21;;;;;;;;;;;20.70;89.90;;;;;;5070669;28;19938;-62
2022/10/05 04:28:53;;;;;;;;;;;20.50;89.80;;;;;;5076738;28;20279;-63
2022/10/05 04:31:33;;;;;;;;;;;20.80;90.00;;;;;;5054600;28;19932;-67
2022/10/05 04:34:00;;;;;;;;;;;20.70;88.60;;;;;;5062826;28;19937;-62
2022/10/05 04:36:29;;;;;;;;;;;20.70;90.10;;;;;;5064944;28;19928;-68
2022/10/05 04:39:21;;;;;;;;;;;20.40;89.80;;;;;;5072743;28;19931;-68
2022/10/05 04:42:02;;;;;;;;;;;20.40;89.80;;;;;;5055137;28;19982;-67
2022/10/05 04:44:46;;;;;;;;;;;20.50;89.80;;;;;;5055130;28;20374;-65
2022/10/05 04:47:21;;;;;;;;;;;20.70;89.10;;;;;;5071869;28;19924;-68
2022/10/05 04:49:49;;;;;;;;;;;20.60;90.00;;;;;;5074171;28;19986;-68
2022/10/05 04:52:34;;;;;;;;;;;20.50;89.90;;;;;;5073205;28;20394;-69
2022/10/05 04:55:03;;;;;;;;;;;20.80;90.00;;;;;;5073187;28;19979;-68
2022/10/05 04:57:28;;;;;;;;;;;20.80;89.20;;;;;;5071033;28;19932;-69
2022/10/05 05:00:03;;;;;;;;;;;20.60;90.00;;;;;;5072074;28;19925;-64
2022/10/05 05:02:52;;;;;;;;;;;20.70;90.00;;;;;;5074947;28;20011;-69
2022/10/05 05:05:26;;;;;;;;;;;20.70;90.00;;;;;;5004397;28;20019;-64
2022/10/05 05:07:54;;;;;;;;;;;20.70;89.30;;;;;;4997171;28;19933;-65
2022/10/05 05:10:28;;;;;;;;;;;20.60;90.00;;;;;;4971924;28;20333;-68
2022/10/05 05:13:03;;;;;;;;;;;20.60;89.10;;;;;;4986667;28;19929;-68
2022/10/05 05:15:34;;;;;;;;;;;20.60;90.00;;;;;;4994203;28;19933;-68
2022/10/05 05:18:03;;;;;;;;;;;20.80;90.00;;;;;;4975102;28;20361;-69
2022/10/05 05:20:47;;;;;;;;;;;20.60;90.00;;;;;;4982768;28;19932;-69
2022/10/05 05:23:33;;;;;;;;;;;20.60;89.20;;;;;;5012464;28;19945;-62
2022/10/05 05:26:18;;;;;;;;;;;20.80;88.80;;;;;;4992650;28;19957;-62
2022/10/05 05:28:44;;;;;;;;;;;20.70;89.20;;;;;;4998828;28;19936;-69
2022/10/05 05:31:21;;;;;;;;;;;20.70;90.00;;;;;;5007180;28;20424;-69
2022/10/05 05:33:53;;;;;;;;;;;20.80;90.10;;;;;;4996907;28;20295;-70
2022/10/05 05:36:31;;;;;;;;;;;20.70;90.00;;;;;;5010654;28;19926;-69
2022/10/05 05:39:11;;;;;;;;;;;20.60;90.00;;;;;;5010490;28;19925;-70
2022/10/05 05:41:54;;;;;;;;;;;20.80;90.10;;;;;;5009541;28;19931;-69
2022/10/05 05:44:34;;;;;;;;;;;20.70;90.00;;;;;;5062013;28;19932;-70
2022/10/05 05:47:03;;;;;;;;;;;20.40;90.00;;;;;;5086921;28;19951;-70
2022/10/05 05:49:52;;;;;;;;;;;20.50;90.00;;;;;;5072960;28;19925;-68
2022/10/05 05:52:22;;;;;;;;;;;20.70;90.00;;;;;;5010600;28;20347;-67
2022/10/05 05:54:55;;;;;;;;;;;20.80;90.10;;;;;;4997037;28;19926;-65
2022/10/05 05:57:21;;;;;;;;;;;20.60;90.00;;;;;;5003955;28;20280;-66
2022/10/05 06:00:04;;;;;;;;;;;20.90;90.10;;;;;;4999670;28;19940;-63
2022/10/05 06:02:44;;;;;;;;;;;20.40;90.00;;;;;;5009429;28;20008;-68
2022/10/05 06:05:25;;;;;;;;;;;20.90;89.50;;;;;;4979456;28;19976;-63
2022/10/05 06:07:51;;;;;;;;;;;20.40;90.00;;;;;;5004067;28;20008;-62
2022/10/05 06:10:23;;;;;;;;;;;20.70;90.30;;;;;;4983518;28;20011;-63
2022/10/05 06:12:49;;;;;;;;;;;20.90;89.50;;;;;;5002383;28;19926;-62
2022/10/05 06:15:31;;;;;;;;;;;20.70;90.10;;;;;;5005617;28;20024;-62
2022/10/05 06:17:59;;;;;;;;;;;20.70;89.30;;;;;;5010096;28;19925;-63
2022/10/05 06:20:24;;;;;;;;;;;20.80;90.10;;;;;;4977940;28;19925;-63
2022/10/05 06:22:50;;;;;;;;;;;20.40;90.00;;;;;;5010079;28;19925;-62
2022/10/05 06:25:29;;;;;;;;;;;20.70;90.00;;;;;;4996614;28;19929;-63
2022/10/05 06:27:54;;;;;;;;;;;20.70;89.30;;;;;;4993477;28;19925;-71
2022/10/05 06:30:20;;;;;;;;;;;20.60;90.00;;;;;;5056000;28;19920;-65
2022/10/05 06:32:49;;;;;;;;;;;20.40;90.00;;;;;;5058893;28;19925;-65
2022/10/05 06:35:33;;;;;;;;;;;20.50;90.00;;;;;;5061647;28;19925;-64
2022/10/05 06:38:11;;;;;;;;;;;20.70;89.20;;;;;;5066297;28;19939;-75
2022/10/05 06:40:56;;;;;;;;;;;20.50;90.00;;;;;;5071951;28;20402;-74
2022/10/05 06:43:34;;;;;;;;;;;20.60;90.00;;;;;;5055723;28;19925;-75
2022/10/05 06:46:03;;;;;;;;;;;20.90;90.10;;;;;;5065645;28;19924;-65
2022/10/05 06:48:48;;;;;;;;;;;20.70;90.00;;;;;;5071556;28;19959;-74
2022/10/05 06:51:18;;;;;;;;;;;20.70;90.00;;;;;;5023707;28;19959;-73
2022/10/05 06:54:09;;;;;;;;;;;20.80;90.10;;;;;;4982567;28;19992;-73
2022/10/05 06:56:38;;;;;;;;;;;20.60;90.00;;;;;;4977892;28;19929;-73
2022/10/05 06:59:13;;;;;;;;;;;20.80;90.00;;;;;;5011355;28;19929;-75
2022/10/05 07:01:39;;;;;;;;;;;20.60;90.00;;;;;;4995922;28;19975;-74
2022/10/05 07:04:14;;;;;;;;;;;20.90;90.10;;;;;;5014592;28;19926;-74
2022/10/05 07:06:42;;;;;;;;;;;21.00;90.00;;;;;;5014911;28;20481;-69
2022/10/05 07:09:14;;;;;;;;;;;20.50;90.10;;;;;;4994418;28;19929;-73
2022/10/05 07:12:11;;;;;;;;;;;20.70;89.10;;;;;;5014343;28;19945;-72
2022/10/05 07:14:37;;;;;;;;;;;20.70;90.00;;;;;;5004812;28;19926;-73
2022/10/05 07:17:09;;;;;;;;;;;20.80;90.00;;;;;;4996235;28;19925;-62
2022/10/05 07:19:51;;;;;;;;;;;20.80;90.00;;;;;;4995691;28;20695;-62
2022/10/05 07:22:30;;;;;;;;;;;20.60;90.00;;;;;;4998783;28;20291;-62
2022/10/05 07:24:58;;;;;;;;;;;20.60;90.00;;;;;;5007733;28;20414;-62
2022/10/05 07:27:24;;;;;;;;;;;20.90;90.10;;;;;;5020287;28;19972;-72
2022/10/05 07:29:50;;;;;;;;;;;20.70;90.00;;;;;;5072008;28;19975;-74
2022/10/05 07:32:19;;;;;;;;;;;20.90;90.00;;;;;;5072454;28;19968;-74
2022/10/05 07:35:00;;;;;;;;;;;20.70;89.90;;;;;;5059696;28;19924;-63
2022/10/05 07:40:16;;;;;;;;;;;20.80;90.00;;;;;;5066936;28;19925;-63
2022/10/05 07:42:46;;;;;;;;;;;20.60;89.90;;;;;;5037371;28;19925;-64
2022/10/05 07:45:11;;;;;;;;;;;21.00;90.00;;;;;;5070659;28;19925;-63
2022/10/05 07:47:38;;;;;;;;;;;20.60;89.80;;;;;;5054228;28;20401;-62
2022/10/05 07:50:21;;;;;;;;;;;20.90;90.00;;;;;;5082337;28;19929;-62
2022/10/05 07:52:57;;;;;;;;;;;20.90;90.00;;;;;;5068695;28;20382;-64
2022/10/05 07:55:26;;;;;;;;;;;20.80;89.80;;;;;;5071418;28;20282;-62
2022/10/05 07:57:54;;;;;;;;;;;20.90;89.80;;;;;;5070111;28;20017;-63
2022/10/05 08:00:21;;;;;;;;;;;20.60;89.40;;;;;;5070106;28;20007;-68
2022/10/05 08:02:46;;;;;;;;;;;20.70;90.00;;;;;;5055202;28;19920;-75
2022/10/05 08:05:16;;;;;;;;;;;20.70;89.90;;;;;;5072292;28;20015;-74
2022/10/05 08:07:41;;;;;;;;;;;20.90;90.00;;;;;;5071024;28;19971;-74
2022/10/05 08:10:16;;;;;;;;;;;20.70;89.90;;;;;;5070090;28;19924;-64
2022/10/05 08:12:57;;;;;;;;;;;20.90;89.90;;;;;;5068487;28;19949;-73
2022/10/05 08:15:46;;;;;;;;;;;20.80;89.00;;;;;;5077154;28;19974;-69
2022/10/05 08:18:11;;;;;;;;;;;20.70;90.00;;;;;;5077066;28;20328;-64
2022/10/05 08:20:43;;;;;;;;;;;20.60;89.50;;;;;;5070874;28;19932;-62
2022/10/05 08:23:11;;;;;;;;;;;20.90;88.80;;;;;;5074524;28;19925;-71
2022/10/05 08:25:49;;;;;;;;;;;20.90;89.60;;;;;;5074184;28;19931;-63
2022/10/05 08:28:34;;;;;;;;;;;20.90;89.60;;;;;;5074256;28;19924;-65
2022/10/05 08:31:08;;;;;;;;;;;20.70;89.50;;;;;;5073516;28;19924;-63
2022/10/05 08:33:35;;;;;;;;;;;22.90;90.30;;;;;;5055934;28;20011;-62
2022/10/05 08:36:11;;;;;;;;;;;20.80;89.40;;;;;;5076426;28;20394;-67
2022/10/05 08:38:36;;;;;;;;;;;20.80;88.50;;;;;;5075449;28;19925;-64
2022/10/05 08:41:06;;;;;;;;;;;21.20;89.80;;;;;;5075509;28;20016;-63
2022/10/05 08:43:50;;;;;;;;;;;21.10;89.30;;;;;;5059774;28;19967;-65
2022/10/05 08:46:16;;;;;;;;;;;21.00;88.40;;;;;;5073604;28;20297;-64
2022/10/05 08:48:47;;;;;;;;;;;20.90;89.40;;;;;;5074617;28;19925;-62
2022/10/05 08:51:22;;;;;;;;;;;20.60;89.20;;;;;;5074372;28;19928;-67
2022/10/05 08:53:48;;;;;;;;;;;20.60;89.30;;;;;;5066302;28;20003;-64
2022/10/05 08:56:28;;;;;;;;;;;20.60;89.70;;;;;;5070155;28;20012;-66
2022/10/05 08:59:12;;;;;;;;;;;20.40;90.00;;;;;;5070762;28;20376;-64
2022/10/05 09:01:44;;;;;;;;;;;20.50;90.10;;;;;;5074804;28;20007;-66
2022/10/05 09:04:18;;;;;;;;;;;20.20;90.20;;;;;;5073351;28;20294;-65
2022/10/05 09:06:50;;;;;;;;;;;20.20;90.30;;;;;;5075297;28;20281;-65
2022/10/05 09:09:16;;;;;;;;;;;20.20;90.50;;;;;;5052205;28;19978;-66
2022/10/05 09:11:41;;;;;;;;;;;20.10;90.50;;;;;;5065677;28;20324;-65
2022/10/05 09:14:16;;;;;;;;;;;20.00;90.60;;;;;;5074914;28;19931;-66
2022/10/05 09:16:44;;;;;;;;;;;19.90;90.60;;;;;;5074588;28;19925;-65
2022/10/05 09:19:09;;;;;;;;;;;20.10;90.70;;;;;;5075018;28;20380;-62
2022/10/05 09:21:41;;;;;;;;;;;20.30;90.70;;;;;;5075210;28;19931;-63
2022/10/05 09:24:07;;;;;;;;;;;20.30;90.50;;;;;;5074654;28;19920;-63
2022/10/05 09:26:33;;;;;;;;;;;20.30;90.70;;;;;;5074314;28;20397;-63
2022/10/05 09:29:24;;;;;;;;;;;20.60;90.40;;;;;;5075542;28;19932;-63
2022/10/05 09:31:50;;;;;;;;;;;20.60;90.30;;;;;;5055652;28;19925;-63
2022/10/05 09:34:22;;;;;;;;;;;20.60;90.30;;;;;;5060722;28;21664;-62
2022/10/05 09:37:00;;;;;;;;;;;20.50;90.20;;;;;;5057251;28;19948;-63
2022/10/05 09:39:25;;;;;;;;;;;20.60;90.20;;;;;;5059142;28;20290;-63
2022/10/05 09:42:09;;;;;;;;;;;20.70;90.20;;;;;;5065696;28;19924;-62
2022/10/05 09:44:54;;;;;;;;;;;20.60;90.20;;;;;;5064726;28;20019;-65
2022/10/05 09:47:34;;;;;;;;;;;20.70;90.30;;;;;;5064244;28;19925;-66
2022/10/05 09:50:19;;;;;;;;;;;20.60;90.30;;;;;;5075287;28;19940;-63
2022/10/05 09:52:52;;;;;;;;;;;20.60;90.30;;;;;;5071805;28;19926;-62
2022/10/05 09:55:19;;;;;;;;;;;20.60;90.30;;;;;;5073841;28;19924;-62
2022/10/05 09:57:45;;;;;;;;;;;20.80;90.60;;;;;;5042084;28;19931;-62
2022/10/05 10:00:15;;;;;;;;;;;20.50;90.30;;;;;;5053954;28;20015;-62
2022/10/05 10:03:03;;;;;;;;;;;21.00;90.30;;;;;;5065459;28;19970;-62
2022/10/05 10:05:47;;;;;;;;;;;20.60;90.10;;;;;;5063315;28;20375;-64
2022/10/05 10:08:32;;;;;;;;;;;20.70;89.50;;;;;;5061641;28;20028;-63
2022/10/05 10:10:58;;;;;;;;;;;21.00;90.00;;;;;;5057380;28;20301;-63
2022/10/05 10:13:32;;;;;;;;;;;20.90;90.00;;;;;;5055052;28;19932;-64
2022/10/05 10:16:04;;;;;;;;;;;21.00;89.80;;;;;;5055399;28;19931;-63
2022/10/05 10:18:33;;;;;;;;;;;20.90;89.70;;;;;;5071419;28;19925;-62
2022/10/05 10:21:14;;;;;;;;;;;21.30;89.90;;;;;;5074749;28;19925;-62
2022/10/05 10:23:59;;;;;;;;;;;21.10;89.80;;;;;;5075293;28;19924;-62
2022/10/05 10:26:33;;;;;;;;;;;20.80;89.30;;;;;;5073084;28;20422;-71
2022/10/05 10:29:31;;;;;;;;;;;21.10;89.40;;;;;;5072617;28;19931;-63
2022/10/05 10:32:09;;;;;;;;;;;21.00;88.40;;;;;;5007504;28;20013;-63
2022/10/05 10:34:43;;;;;;;;;;;21.10;88.30;;;;;;4992231;28;20458;-68
2022/10/05 10:37:09;;;;;;;;;;;21.10;88.20;;;;;;5007978;28;20004;-63
2022/10/05 10:39:54;;;;;;;;;;;21.20;88.70;;;;;;5009893;28;20020;-64
2022/10/05 10:42:26;;;;;;;;;;;21.00;88.00;;;;;;5012455;28;20416;-63
2022/10/05 10:45:18;;;;;;;;;;;21.00;87.90;;;;;;4996298;28;20323;-62
2022/10/05 10:47:56;;;;;;;;;;;21.10;88.80;;;;;;4934495;29;19935;-62
2022/10/05 10:50:24;;;;;;;;;;;21.40;88.90;;;;;;4928984;29;19954;-72
2022/10/05 10:52:58;;;;;;;;;;;21.10;87.80;;;;;;4949296;29;19931;-70
2022/10/05 10:55:29;;;;;;;;;;;21.10;87.80;;;;;;4919288;29;20296;-68
2022/10/05 10:58:15;;;;;;;;;;;21.30;88.70;;;;;;4926699;29;19930;-64
2022/10/05 11:00:41;;;;;;;;;;;21.40;89.30;;;;;;4892666;29;20484;-72
2022/10/05 11:03:07;;;;;;;;;;;21.20;88.60;;;;;;4896789;29;19962;-71
2022/10/05 11:05:39;;;;;;;;;;;21.20;88.90;;;;;;4896779;29;20026;-72
2022/10/05 11:08:17;;;;;;;;;;;21.30;87.70;;;;;;4912317;29;19933;-71
2022/10/05 11:11:01;;;;;;;;;;;21.40;87.70;;;;;;4933773;29;19933;-70
2022/10/05 11:13:33;;;;;;;;;;;21.30;87.60;;;;;;4933272;29;19997;-70
2022/10/05 11:16:06;;;;;;;;;;;21.20;87.50;;;;;;4918615;29;19934;-70
2022/10/05 11:18:45;;;;;;;;;;;21.20;87.50;;;;;;4934550;29;19954;-73
2022/10/05 11:21:11;;;;;;;;;;;21.10;87.40;;;;;;4934477;29;19927;-69
2022/10/05 11:23:56;;;;;;;;;;;21.30;88.20;;;;;;4943894;28;19927;-70
2022/10/05 11:26:25;;;;;;;;;;;21.10;88.20;;;;;;5011669;28;20441;-72
2022/10/05 11:29:09;;;;;;;;;;;21.40;88.20;;;;;;4995154;28;19926;-67
2022/10/05 11:31:36;;;;;;;;;;;21.10;87.30;;;;;;5009779;28;19933;-64
2022/10/05 11:34:02;;;;;;;;;;;;;;;;;;5000479;28;19933;-66
2022/10/05 11:36:46;;;;;;;;;;;21.30;86.80;;;;;;5003668;28;19926;-63
2022/10/05 11:39:27;;;;;;;;;;;21.10;87.30;;;;;;5053735;28;19971;-62
2022/10/05 11:41:56;;;;;;;;;;;21.20;87.30;;;;;;5061376;28;19924;-63
2022/10/05 11:44:34;;;;;;;;;;;21.20;87.20;;;;;;5067911;28;19925;-63
2022/10/05 11:47:07;;;;;;;;;;;21.20;87.30;;;;;;5070074;28;19931;-62
2022/10/05 11:49:42;;;;;;;;;;;21.30;88.50;;;;;;5063216;28;19935;-67
2022/10/05 11:52:28;;;;;;;;;;;21.10;87.10;;;;;;5069347;28;19925;-66
2022/10/05 11:54:54;;;;;;;;;;;21.10;88.40;;;;;;5076701;28;20388;-62
2022/10/05 11:57:36;;;;;;;;;;;21.00;88.70;;;;;;5077453;28;20034;-62
2022/10/05 12:00:06;;;;;;;;;;;20.80;87.70;;;;;;5077561;28;20074;-63
2022/10/05 12:02:34;;;;;;;;;;;21.10;87.80;;;;;;5077038;28;19924;-62
2022/10/05 12:05:19;;;;;;;;;;;21.10;87.80;;;;;;5073505;28;19924;-61
2022/10/05 12:07:45;;;;;;;;;;;21.20;87.80;;;;;;5057352;28;19924;-62
2022/10/05 12:10:27;;;;;;;;;;;21.10;88.70;;;;;;5055819;28;19988;-62
2022/10/05 12:13:12;;;;;;;;;;;21.00;87.60;;;;;;5056882;28;20345;-62
2022/10/05 12:15:47;;;;;;;;;;;21.10;87.60;;;;;;5072513;28;19924;-63
2022/10/05 12:18:38;;;;;;;;;;;21.20;87.60;;;;;;5076525;28;19925;-63
2022/10/05 12:21:16;;;;;;;;;;;21.00;87.40;;;;;;5075532;28;19932;-62
2022/10/05 12:23:50;;;;;;;;;;;21.30;88.90;;;;;;5075602;28;19929;-62
2022/10/05 12:26:20;;;;;;;;;;;21.30;87.50;;;;;;5074871;28;19924;-62
2022/10/05 12:28:46;;;;;;;;;;;21.00;87.50;;;;;;5075465;28;19972;-62
2022/10/05 12:31:24;;;;;;;;;;;21.30;88.80;;;;;;5077192;28;20389;-62
2022/10/05 12:34:00;;;;;;;;;;;21.10;87.50;;;;;;5076930;28;20289;-62
2022/10/05 12:36:29;;;;;;;;;;;21.20;87.50;;;;;;5074376;28;19958;-62
2022/10/05 12:38:58;;;;;;;;;;;21.30;87.50;;;;;;5075981;28;19924;-62
2022/10/05 12:41:28;;;;;;;;;;;21.20;88.80;;;;;;5076433;28;19928;-62
2022/10/05 12:44:17;;;;;;;;;;;21.00;87.30;;;;;;5076533;28;20292;-62
2022/10/05 12:46:49;;;;;;;;;;;21.10;87.40;;;;;;5014128;28;19925;-62
2022/10/05 12:49:52;;;;;;;;;;;21.10;87.40;;;;;;5013979;28;20310;-63
2022/10/05 12:52:38;;;;;;;;;;;21.00;87.40;;;;;;4928850;29;20318;-62
2022/10/05 12:55:10;;;;;;;;;;;21.20;88.90;;;;;;4917914;29;19933;-63
2022/10/05 12:57:47;;;;;;;;;;;21.20;88.40;;;;;;4922276;29;19973;-61
2022/10/05 13:00:15;;;;;;;;;;;21.20;87.60;;;;;;4935553;29;20421;-62
2022/10/05 13:02:45;;;;;;;;;;;21.20;88.50;;;;;;4936815;29;19923;-63
2022/10/05 13:05:10;;;;;;;;;;;21.10;87.50;;;;;;4936759;29;19967;-62
2022/10/05 13:07:37;;;;;;;;;;;21.20;88.70;;;;;;4935062;29;19965;-63
2022/10/05 13:10:03;;;;;;;;;;;21.40;88.70;;;;;;4906836;29;20001;-62
2022/10/05 13:12:35;;;;;;;;;;;21.20;88.70;;;;;;4917548;29;19931;-61
2022/10/05 13:15:03;;;;;;;;;;;21.10;87.50;;;;;;4917628;29;20025;-62
2022/10/05 13:17:33;;;;;;;;;;;21.10;88.70;;;;;;4917490;29;19927;-63
2022/10/05 13:20:01;;;;;;;;;;;21.10;88.90;;;;;;4918406;29;20041;-62
2022/10/05 13:22:27;;;;;;;;;;;21.30;89.00;;;;;;4917677;29;20397;-61
2022/10/05 13:24:58;;;;;;;;;;;21.00;88.40;;;;;;4939743;29;19937;-63
2022/10/05 13:27:31;;;;;;;;;;;21.10;88.90;;;;;;5054762;28;19936;-62
2022/10/05 13:30:04;;;;;;;;;;;21.20;87.60;;;;;;5074625;28;19966;-62
2022/10/05 13:32:33;;;;;;;;;;;21.20;87.60;;;;;;5074876;28;20034;-62
2022/10/05 13:35:17;;;;;;;;;;;21.10;88.90;;;;;;5075308;28;20035;-62
2022/10/05 13:38:00;;;;;;;;;;;20.90;87.40;;;;;;5075346;28;19928;-62
2022/10/05 13:40:42;;;;;;;;;;;21.10;87.50;;;;;;5075380;28;20015;-62
2022/10/05 13:43:11;;;;;;;;;;;21.20;87.60;;;;;;5074688;28;19979;-62
2022/10/05 13:45:41;;;;;;;;;;;21.20;87.60;;;;;;5071564;28;19995;-63
2022/10/05 13:48:42;;;;;;;;;;;21.10;87.50;;;;;;5070241;28;20049;-62
2022/10/05 13:51:31;;;;;;;;;;;21.30;87.60;;;;;;5013345;28;19932;-63
2022/10/05 13:54:00;;;;;;;;;;;21.30;87.80;;;;;;4922986;29;19935;-63
2022/10/05 13:56:45;;;;;;;;;;;21.40;87.90;;;;;;4915223;29;19974;-65
2022/10/05 13:59:40;;;;;;;;;;;21.30;87.80;;;;;;4915824;29;20302;-65
2022/10/05 14:02:09;;;;;;;;;;;20.90;87.60;;;;;;4909408;29;19927;-70
2022/10/05 14:04:45;;;;;;;;;;;21.00;88.60;;;;;;4914980;29;19974;-63
2022/10/05 14:07:31;;;;;;;;;;;21.30;87.80;;;;;;4917975;29;20354;-62
2022/10/05 14:09:57;;;;;;;;;;;21.30;87.70;;;;;;4915731;29;19934;-63
2022/10/05 14:12:24;;;;;;;;;;;21.50;89.00;;;;;;4916082;29;19931;-62
2022/10/05 14:14:58;;;;;;;;;;;21.20;89.10;;;;;;4915550;29;20103;-64
2022/10/05 14:17:39;;;;;;;;;;;21.30;89.10;;;;;;4920114;29;19938;-63
2022/10/05 14:20:20;;;;;;;;;;;21.20;88.30;;;;;;4916685;29;19934;-69
2022/10/05 14:22:48;;;;;;;;;;;21.60;87.90;;;;;;4916339;29;19980;-62
2022/10/05 14:25:16;;;;;;;;;;;21.20;89.10;;;;;;4957952;28;19930;-62
2022/10/05 14:28:02;;;;;;;;;;;21.40;88.90;;;;;;4992915;28;19925;-71
2022/10/05 14:30:29;;;;;;;;;;;21.40;89.30;;;;;;4952890;28;19925;-70
2022/10/05 14:32:56;;;;;;;;;;;21.20;89.20;;;;;;4993243;28;20292;-62
2022/10/05 14:35:24;;;;;;;;;;;21.30;89.20;;;;;;4992761;28;20374;-63
2022/10/05 14:37:52;;;;;;;;;;;21.40;89.20;;;;;;4990853;28;20012;-68
2022/10/05 14:40:24;;;;;;;;;;;21.30;88.60;;;;;;4992976;28;20008;-71
2022/10/05 14:42:50;;;;;;;;;;;21.30;87.80;;;;;;4993725;28;20308;-71
2022/10/05 14:45:19;;;;;;;;;;;21.40;88.90;;;;;;4992251;28;19960;-71
2022/10/05 14:47:51;;;;;;;;;;;21.30;87.90;;;;;;4992152;28;19926;-67
2022/10/05 14:50:24;;;;;;;;;;;21.30;87.90;;;;;;4976691;28;19964;-63
2022/10/05 14:53:09;;;;;;;;;;;21.40;87.90;;;;;;4992062;28;20344;-71
2022/10/05 14:55:54;;;;;;;;;;;21.50;88.90;;;;;;4992788;28;19925;-65
2022/10/05 14:58:22;;;;;;;;;;;21.40;88.00;;;;;;4993165;28;20304;-62